sensor_id;sensor_type;location;lat;lon;timestamp;P1;durP1;ratioP1;P2;durP2;ratioP2
63016;SDS011;50274;45.640;11.756;2024-03-22T00:01:48;43.33;;;28.60;;
63016;SDS011;50274;45.640;11.756;2024-03-22T00:04:15;43.00;;;29.60;;
63016;SDS011;50274;45.640;11.756;2024-03-22T00:06:41;40.90;;;27.70;;
63016;SDS011;50274;45.640;11.756;2024-03-22T00:09:08;43.63;;;28.85;;
63016;SDS011;50274;45.640;11.756;2024-03-22T00:11:34;41.38;;;27.60;;
63016;SDS011;50274;45.640;11.756;2024-03-22T00:14:01;41.03;;;27.47;;
63016;SDS011;50274;45.640;11.756;2024-03-22T00:16:27;43.67;;;28.00;;
63016;SDS011;50274;45.640;11.756;2024-03-22T00:18:53;40.58;;;26.17;;
63016;SDS011;50274;45.640;11.756;2024-03-22T00:21:19;43.00;;;27.80;;
63016;SDS011;50274;45.640;11.756;2024-03-22T00:23:46;42.10;;;27.67;;
63016;SDS011;50274;45.640;11.756;2024-03-22T00:26:12;43.05;;;26.92;;
63016;SDS011;50274;45.640;11.756;2024-03-22T00:28:37;41.15;;;26.40;;
63016;SDS011;50274;45.640;11.756;2024-03-22T00:31:03;42.47;;;26.90;;
63016;SDS011;50274;45.640;11.756;2024-03-22T00:33:29;42.38;;;26.63;;
63016;SDS011;50274;45.640;11.756;2024-03-22T00:35:55;40.30;;;26.42;;
63016;SDS011;50274;45.640;11.756;2024-03-22T00:38:21;40.67;;;25.70;;
63016;SDS011;50274;45.640;11.756;2024-03-22T00:40:46;38.05;;;25.63;;
63016;SDS011;50274;45.640;11.756;2024-03-22T00:43:12;36.53;;;24.90;;
63016;SDS011;50274;45.640;11.756;2024-03-22T00:45:38;38.17;;;25.52;;
63016;SDS011;50274;45.640;11.756;2024-03-22T00:48:04;36.43;;;23.93;;
63016;SDS011;50274;45.640;11.756;2024-03-22T00:50:30;42.63;;;26.63;;
63016;SDS011;50274;45.640;11.756;2024-03-22T00:52:56;39.22;;;25.10;;
63016;SDS011;50274;45.640;11.756;2024-03-22T00:55:22;39.27;;;25.03;;
63016;SDS011;50274;45.640;11.756;2024-03-22T00:57:48;39.85;;;25.25;;
63016;SDS011;50274;45.640;11.756;2024-03-22T01:00:14;39.97;;;25.42;;
63016;SDS011;50274;45.640;11.756;2024-03-22T01:02:41;44.00;;;26.98;;
63016;SDS011;50274;45.640;11.756;2024-03-22T01:05:07;38.42;;;25.45;;
63016;SDS011;50274;45.640;11.756;2024-03-22T01:07:33;40.93;;;25.40;;
63016;SDS011;50274;45.640;11.756;2024-03-22T01:10:00;36.53;;;24.98;;
63016;SDS011;50274;45.640;11.756;2024-03-22T01:12:26;41.72;;;25.25;;
63016;SDS011;50274;45.640;11.756;2024-03-22T01:14:52;40.23;;;25.30;;
63016;SDS011;50274;45.640;11.756;2024-03-22T01:17:17;38.00;;;24.77;;
63016;SDS011;50274;45.640;11.756;2024-03-22T01:19:43;42.20;;;27.63;;
63016;SDS011;50274;45.640;11.756;2024-03-22T01:22:09;38.05;;;25.00;;
63016;SDS011;50274;45.640;11.756;2024-03-22T01:24:35;40.88;;;24.35;;
63016;SDS011;50274;45.640;11.756;2024-03-22T01:27:00;38.03;;;23.73;;
63016;SDS011;50274;45.640;11.756;2024-03-22T01:29:26;37.30;;;24.65;;
63016;SDS011;50274;45.640;11.756;2024-03-22T01:31:55;37.93;;;23.93;;
63016;SDS011;50274;45.640;11.756;2024-03-22T01:34:21;31.92;;;21.98;;
63016;SDS011;50274;45.640;11.756;2024-03-22T01:36:47;33.78;;;21.73;;
63016;SDS011;50274;45.640;11.756;2024-03-22T01:39:12;34.47;;;22.77;;
63016;SDS011;50274;45.640;11.756;2024-03-22T01:41:39;33.83;;;22.67;;
63016;SDS011;50274;45.640;11.756;2024-03-22T01:44:05;40.08;;;25.55;;
63016;SDS011;50274;45.640;11.756;2024-03-22T01:46:31;34.87;;;22.43;;
63016;SDS011;50274;45.640;11.756;2024-03-22T01:48:57;45.40;;;29.65;;
63016;SDS011;50274;45.640;11.756;2024-03-22T01:51:23;35.25;;;23.35;;
63016;SDS011;50274;45.640;11.756;2024-03-22T01:53:49;37.23;;;22.57;;
63016;SDS011;50274;45.640;11.756;2024-03-22T01:56:16;35.47;;;23.05;;
63016;SDS011;50274;45.640;11.756;2024-03-22T01:58:42;36.38;;;22.60;;
63016;SDS011;50274;45.640;11.756;2024-03-22T02:01:09;37.90;;;23.00;;
63016;SDS011;50274;45.640;11.756;2024-03-22T02:03:34;33.40;;;21.20;;
63016;SDS011;50274;45.640;11.756;2024-03-22T02:06:00;32.22;;;21.55;;
63016;SDS011;50274;45.640;11.756;2024-03-22T02:08:26;35.60;;;22.70;;
63016;SDS011;50274;45.640;11.756;2024-03-22T02:10:52;33.60;;;22.13;;
63016;SDS011;50274;45.640;11.756;2024-03-22T02:13:18;41.60;;;26.60;;
63016;SDS011;50274;45.640;11.756;2024-03-22T02:15:43;36.03;;;24.40;;
63016;SDS011;50274;45.640;11.756;2024-03-22T02:18:09;34.08;;;21.15;;
63016;SDS011;50274;45.640;11.756;2024-03-22T02:20:35;36.90;;;22.97;;
63016;SDS011;50274;45.640;11.756;2024-03-22T02:23:00;36.58;;;23.88;;
63016;SDS011;50274;45.640;11.756;2024-03-22T02:25:26;34.10;;;21.83;;
63016;SDS011;50274;45.640;11.756;2024-03-22T02:27:52;39.55;;;24.10;;
63016;SDS011;50274;45.640;11.756;2024-03-22T02:30:18;40.73;;;26.93;;
63016;SDS011;50274;45.640;11.756;2024-03-22T02:32:44;39.27;;;25.70;;
63016;SDS011;50274;45.640;11.756;2024-03-22T02:35:09;38.53;;;25.73;;
63016;SDS011;50274;45.640;11.756;2024-03-22T02:37:36;36.95;;;24.45;;
63016;SDS011;50274;45.640;11.756;2024-03-22T02:40:01;36.50;;;22.90;;
63016;SDS011;50274;45.640;11.756;2024-03-22T02:42:27;38.75;;;24.23;;
63016;SDS011;50274;45.640;11.756;2024-03-22T02:44:53;36.97;;;24.40;;
63016;SDS011;50274;45.640;11.756;2024-03-22T02:47:19;36.53;;;23.17;;
63016;SDS011;50274;45.640;11.756;2024-03-22T02:49:45;34.90;;;21.88;;
63016;SDS011;50274;45.640;11.756;2024-03-22T02:52:10;36.80;;;22.30;;
63016;SDS011;50274;45.640;11.756;2024-03-22T02:54:36;32.83;;;21.55;;
63016;SDS011;50274;45.640;11.756;2024-03-22T02:57:02;33.93;;;21.90;;
63016;SDS011;50274;45.640;11.756;2024-03-22T02:59:28;36.90;;;23.00;;
63016;SDS011;50274;45.640;11.756;2024-03-22T03:01:54;32.15;;;21.58;;
63016;SDS011;50274;45.640;11.756;2024-03-22T03:04:20;34.67;;;21.20;;
63016;SDS011;50274;45.640;11.756;2024-03-22T03:06:46;33.23;;;21.63;;
63016;SDS011;50274;45.640;11.756;2024-03-22T03:09:12;33.78;;;21.85;;
63016;SDS011;50274;45.640;11.756;2024-03-22T03:11:38;35.17;;;22.70;;
63016;SDS011;50274;45.640;11.756;2024-03-22T03:14:04;35.92;;;22.75;;
63016;SDS011;50274;45.640;11.756;2024-03-22T03:16:30;32.13;;;20.67;;
63016;SDS011;50274;45.640;11.756;2024-03-22T03:18:56;36.63;;;23.85;;
63016;SDS011;50274;45.640;11.756;2024-03-22T03:21:22;33.57;;;20.80;;
63016;SDS011;50274;45.640;11.756;2024-03-22T03:23:48;33.00;;;21.08;;
63016;SDS011;50274;45.640;11.756;2024-03-22T03:26:14;36.93;;;23.50;;
63016;SDS011;50274;45.640;11.756;2024-03-22T03:28:39;35.22;;;21.42;;
63016;SDS011;50274;45.640;11.756;2024-03-22T03:31:05;32.80;;;20.53;;
63016;SDS011;50274;45.640;11.756;2024-03-22T03:33:31;33.65;;;21.27;;
63016;SDS011;50274;45.640;11.756;2024-03-22T03:35:57;33.50;;;20.37;;
63016;SDS011;50274;45.640;11.756;2024-03-22T03:38:22;33.72;;;21.00;;
63016;SDS011;50274;45.640;11.756;2024-03-22T03:40:48;33.72;;;21.33;;
63016;SDS011;50274;45.640;11.756;2024-03-22T03:43:14;32.70;;;20.33;;
63016;SDS011;50274;45.640;11.756;2024-03-22T03:45:40;33.72;;;19.55;;
63016;SDS011;50274;45.640;11.756;2024-03-22T03:48:05;35.73;;;20.83;;
63016;SDS011;50274;45.640;11.756;2024-03-22T03:50:31;33.55;;;20.13;;
63016;SDS011;50274;45.640;11.756;2024-03-22T03:52:57;43.67;;;25.38;;
63016;SDS011;50274;45.640;11.756;2024-03-22T03:55:23;31.37;;;21.77;;
63016;SDS011;50274;45.640;11.756;2024-03-22T03:57:52;35.40;;;19.25;;
63016;SDS011;50274;45.640;11.756;2024-03-22T04:00:20;30.20;;;18.65;;
63016;SDS011;50274;45.640;11.756;2024-03-22T04:02:48;31.43;;;18.80;;
63016;SDS011;50274;45.640;11.756;2024-03-22T04:05:14;29.52;;;18.90;;
63016;SDS011;50274;45.640;11.756;2024-03-22T04:07:40;30.75;;;19.20;;
63016;SDS011;50274;45.640;11.756;2024-03-22T04:10:07;27.33;;;16.03;;
63016;SDS011;50274;45.640;11.756;2024-03-22T04:12:33;30.52;;;17.23;;
63016;SDS011;50274;45.640;11.756;2024-03-22T04:14:59;28.92;;;17.30;;
63016;SDS011;50274;45.640;11.756;2024-03-22T04:17:25;30.38;;;17.90;;
63016;SDS011;50274;45.640;11.756;2024-03-22T04:19:51;27.47;;;16.37;;
63016;SDS011;50274;45.640;11.756;2024-03-22T04:22:17;25.05;;;15.70;;
63016;SDS011;50274;45.640;11.756;2024-03-22T04:24:43;24.10;;;15.38;;
63016;SDS011;50274;45.640;11.756;2024-03-22T04:27:09;25.67;;;15.73;;
63016;SDS011;50274;45.640;11.756;2024-03-22T04:29:35;25.08;;;15.63;;
63016;SDS011;50274;45.640;11.756;2024-03-22T04:32:01;25.33;;;14.83;;
63016;SDS011;50274;45.640;11.756;2024-03-22T04:34:26;23.42;;;14.43;;
63016;SDS011;50274;45.640;11.756;2024-03-22T04:36:52;27.10;;;15.27;;
63016;SDS011;50274;45.640;11.756;2024-03-22T04:39:22;22.47;;;14.30;;
63016;SDS011;50274;45.640;11.756;2024-03-22T04:41:49;24.17;;;14.15;;
63016;SDS011;50274;45.640;11.756;2024-03-22T04:44:15;24.40;;;14.38;;
63016;SDS011;50274;45.640;11.756;2024-03-22T04:46:41;21.93;;;12.63;;
63016;SDS011;50274;45.640;11.756;2024-03-22T04:49:07;26.30;;;14.15;;
63016;SDS011;50274;45.640;11.756;2024-03-22T04:51:32;23.38;;;14.50;;
63016;SDS011;50274;45.640;11.756;2024-03-22T04:53:58;21.37;;;13.03;;
63016;SDS011;50274;45.640;11.756;2024-03-22T04:56:24;22.80;;;12.73;;
63016;SDS011;50274;45.640;11.756;2024-03-22T04:58:50;22.53;;;12.93;;
63016;SDS011;50274;45.640;11.756;2024-03-22T05:01:16;23.35;;;13.23;;
63016;SDS011;50274;45.640;11.756;2024-03-22T05:03:42;23.52;;;14.45;;
63016;SDS011;50274;45.640;11.756;2024-03-22T05:06:08;25.23;;;13.90;;
63016;SDS011;50274;45.640;11.756;2024-03-22T05:08:34;21.63;;;12.37;;
63016;SDS011;50274;45.640;11.756;2024-03-22T05:11:00;23.55;;;12.88;;
63016;SDS011;50274;45.640;11.756;2024-03-22T05:13:25;23.17;;;13.63;;
63016;SDS011;50274;45.640;11.756;2024-03-22T05:15:51;22.10;;;12.65;;
63016;SDS011;50274;45.640;11.756;2024-03-22T05:18:17;26.67;;;14.10;;
63016;SDS011;50274;45.640;11.756;2024-03-22T05:20:43;22.55;;;12.73;;
63016;SDS011;50274;45.640;11.756;2024-03-22T05:23:09;23.23;;;13.82;;
63016;SDS011;50274;45.640;11.756;2024-03-22T05:25:35;20.83;;;12.63;;
63016;SDS011;50274;45.640;11.756;2024-03-22T05:28:01;23.65;;;12.52;;
63016;SDS011;50274;45.640;11.756;2024-03-22T05:30:27;21.80;;;12.53;;
63016;SDS011;50274;45.640;11.756;2024-03-22T05:32:52;21.88;;;12.50;;
63016;SDS011;50274;45.640;11.756;2024-03-22T05:35:18;22.65;;;13.00;;
63016;SDS011;50274;45.640;11.756;2024-03-22T05:37:44;22.20;;;13.07;;
63016;SDS011;50274;45.640;11.756;2024-03-22T05:40:10;22.23;;;13.45;;
63016;SDS011;50274;45.640;11.756;2024-03-22T05:42:37;25.63;;;13.27;;
63016;SDS011;50274;45.640;11.756;2024-03-22T05:45:02;24.43;;;12.73;;
63016;SDS011;50274;45.640;11.756;2024-03-22T05:47:28;23.10;;;12.88;;
63016;SDS011;50274;45.640;11.756;2024-03-22T05:49:56;27.20;;;14.13;;
63016;SDS011;50274;45.640;11.756;2024-03-22T05:52:23;21.42;;;12.52;;
63016;SDS011;50274;45.640;11.756;2024-03-22T05:54:49;24.77;;;13.93;;
63016;SDS011;50274;45.640;11.756;2024-03-22T05:57:14;23.50;;;13.40;;
63016;SDS011;50274;45.640;11.756;2024-03-22T05:59:40;26.10;;;12.67;;
63016;SDS011;50274;45.640;11.756;2024-03-22T06:02:06;23.08;;;12.35;;
63016;SDS011;50274;45.640;11.756;2024-03-22T06:04:32;30.77;;;13.43;;
63016;SDS011;50274;45.640;11.756;2024-03-22T06:06:58;32.47;;;13.38;;
63016;SDS011;50274;45.640;11.756;2024-03-22T06:09:25;27.88;;;12.32;;
63016;SDS011;50274;45.640;11.756;2024-03-22T06:12:13;29.58;;;13.10;;
63016;SDS011;50274;45.640;11.756;2024-03-22T06:14:40;27.97;;;12.03;;
63016;SDS011;50274;45.640;11.756;2024-03-22T06:17:07;28.70;;;12.32;;
63016;SDS011;50274;45.640;11.756;2024-03-22T06:19:34;22.90;;;11.82;;
63016;SDS011;50274;45.640;11.756;2024-03-22T06:22:00;23.00;;;11.43;;
63016;SDS011;50274;45.640;11.756;2024-03-22T06:24:27;22.33;;;11.75;;
63016;SDS011;50274;45.640;11.756;2024-03-22T06:26:53;22.33;;;11.17;;
63016;SDS011;50274;45.640;11.756;2024-03-22T06:29:19;22.98;;;11.18;;
63016;SDS011;50274;45.640;11.756;2024-03-22T06:31:45;23.70;;;11.43;;
63016;SDS011;50274;45.640;11.756;2024-03-22T06:34:11;27.20;;;11.68;;
63016;SDS011;50274;45.640;11.756;2024-03-22T06:36:37;29.33;;;13.47;;
63016;SDS011;50274;45.640;11.756;2024-03-22T06:39:03;32.13;;;13.02;;
63016;SDS011;50274;45.640;11.756;2024-03-22T06:41:32;24.83;;;11.43;;
63016;SDS011;50274;45.640;11.756;2024-03-22T06:43:58;27.33;;;12.95;;
63016;SDS011;50274;45.640;11.756;2024-03-22T06:46:24;23.75;;;12.13;;
63016;SDS011;50274;45.640;11.756;2024-03-22T06:48:49;23.50;;;11.90;;
63016;SDS011;50274;45.640;11.756;2024-03-22T06:51:18;22.63;;;11.05;;
63016;SDS011;50274;45.640;11.756;2024-03-22T06:53:44;19.45;;;11.02;;
63016;SDS011;50274;45.640;11.756;2024-03-22T06:56:11;19.95;;;10.10;;
63016;SDS011;50274;45.640;11.756;2024-03-22T06:58:37;19.17;;;10.07;;
63016;SDS011;50274;45.640;11.756;2024-03-22T07:01:05;18.67;;;10.10;;
63016;SDS011;50274;45.640;11.756;2024-03-22T07:03:31;16.10;;;9.20;;
63016;SDS011;50274;45.640;11.756;2024-03-22T07:05:58;21.15;;;9.75;;
63016;SDS011;50274;45.640;11.756;2024-03-22T07:08:24;17.50;;;9.33;;
63016;SDS011;50274;45.640;11.756;2024-03-22T07:10:53;15.52;;;8.35;;
63016;SDS011;50274;45.640;11.756;2024-03-22T07:13:19;20.88;;;9.55;;
63016;SDS011;50274;45.640;11.756;2024-03-22T07:15:46;18.90;;;8.53;;
63016;SDS011;50274;45.640;11.756;2024-03-22T07:18:12;18.52;;;8.75;;
63016;SDS011;50274;45.640;11.756;2024-03-22T07:20:39;21.50;;;9.45;;
63016;SDS011;50274;45.640;11.756;2024-03-22T07:23:04;17.17;;;10.18;;
63016;SDS011;50274;45.640;11.756;2024-03-22T07:25:30;15.77;;;9.20;;
63016;SDS011;50274;45.640;11.756;2024-03-22T07:27:56;16.73;;;9.68;;
63016;SDS011;50274;45.640;11.756;2024-03-22T07:30:22;19.50;;;9.80;;
63016;SDS011;50274;45.640;11.756;2024-03-22T07:32:48;24.00;;;10.23;;
63016;SDS011;50274;45.640;11.756;2024-03-22T07:35:14;24.85;;;10.93;;
63016;SDS011;50274;45.640;11.756;2024-03-22T07:37:39;21.02;;;10.88;;
63016;SDS011;50274;45.640;11.756;2024-03-22T07:40:06;19.67;;;11.00;;
63016;SDS011;50274;45.640;11.756;2024-03-22T07:42:32;22.55;;;11.95;;
63016;SDS011;50274;45.640;11.756;2024-03-22T07:44:58;20.55;;;10.65;;
63016;SDS011;50274;45.640;11.756;2024-03-22T07:47:23;22.80;;;10.17;;
63016;SDS011;50274;45.640;11.756;2024-03-22T07:49:50;20.92;;;10.02;;
63016;SDS011;50274;45.640;11.756;2024-03-22T07:52:16;18.02;;;10.48;;
63016;SDS011;50274;45.640;11.756;2024-03-22T07:54:42;18.20;;;10.40;;
63016;SDS011;50274;45.640;11.756;2024-03-22T07:57:08;18.42;;;9.55;;
63016;SDS011;50274;45.640;11.756;2024-03-22T07:59:35;16.25;;;8.50;;
63016;SDS011;50274;45.640;11.756;2024-03-22T08:02:02;15.52;;;8.88;;
63016;SDS011;50274;45.640;11.756;2024-03-22T08:04:28;18.23;;;8.20;;
63016;SDS011;50274;45.640;11.756;2024-03-22T08:06:54;15.95;;;7.78;;
63016;SDS011;50274;45.640;11.756;2024-03-22T08:09:20;14.98;;;7.80;;
63016;SDS011;50274;45.640;11.756;2024-03-22T08:11:46;16.33;;;8.30;;
63016;SDS011;50274;45.640;11.756;2024-03-22T08:14:13;19.85;;;6.93;;
63016;SDS011;50274;45.640;11.756;2024-03-22T08:16:39;14.00;;;6.60;;
63016;SDS011;50274;45.640;11.756;2024-03-22T08:19:04;21.35;;;6.97;;
63016;SDS011;50274;45.640;11.756;2024-03-22T08:21:30;36.00;;;11.23;;
63016;SDS011;50274;45.640;11.756;2024-03-22T08:23:56;26.23;;;9.05;;
63016;SDS011;50274;45.640;11.756;2024-03-22T08:26:22;17.13;;;9.43;;
63016;SDS011;50274;45.640;11.756;2024-03-22T08:28:48;20.33;;;10.20;;
63016;SDS011;50274;45.640;11.756;2024-03-22T08:31:14;22.02;;;12.18;;
63016;SDS011;50274;45.640;11.756;2024-03-22T08:33:42;23.30;;;12.25;;
63016;SDS011;50274;45.640;11.756;2024-03-22T08:36:08;21.90;;;12.10;;
63016;SDS011;50274;45.640;11.756;2024-03-22T08:38:33;22.58;;;12.60;;
63016;SDS011;50274;45.640;11.756;2024-03-22T08:41:00;20.17;;;11.38;;
63016;SDS011;50274;45.640;11.756;2024-03-22T08:43:26;21.48;;;10.48;;
63016;SDS011;50274;45.640;11.756;2024-03-22T08:45:54;20.30;;;9.80;;
63016;SDS011;50274;45.640;11.756;2024-03-22T08:48:20;15.65;;;8.88;;
63016;SDS011;50274;45.640;11.756;2024-03-22T08:50:46;18.05;;;9.75;;
63016;SDS011;50274;45.640;11.756;2024-03-22T08:53:12;17.67;;;8.87;;
63016;SDS011;50274;45.640;11.756;2024-03-22T08:55:38;21.77;;;9.20;;
63016;SDS011;50274;45.640;11.756;2024-03-22T08:58:10;31.83;;;9.30;;
63016;SDS011;50274;45.640;11.756;2024-03-22T09:00:35;29.43;;;8.57;;
63016;SDS011;50274;45.640;11.756;2024-03-22T09:03:03;16.42;;;7.93;;
63016;SDS011;50274;45.640;11.756;2024-03-22T09:05:28;15.18;;;8.18;;
63016;SDS011;50274;45.640;11.756;2024-03-22T09:07:54;28.08;;;8.57;;
63016;SDS011;50274;45.640;11.756;2024-03-22T09:10:22;214.00;;;19.73;;
63016;SDS011;50274;45.640;11.756;2024-03-22T09:12:48;54.58;;;10.02;;
63016;SDS011;50274;45.640;11.756;2024-03-22T09:15:13;22.92;;;7.22;;
63016;SDS011;50274;45.640;11.756;2024-03-22T09:17:39;43.47;;;9.00;;
63016;SDS011;50274;45.640;11.756;2024-03-22T09:20:05;29.75;;;7.18;;
63016;SDS011;50274;45.640;11.756;2024-03-22T09:22:32;13.15;;;6.30;;
63016;SDS011;50274;45.640;11.756;2024-03-22T09:24:59;14.20;;;6.80;;
63016;SDS011;50274;45.640;11.756;2024-03-22T09:27:25;11.13;;;6.55;;
63016;SDS011;50274;45.640;11.756;2024-03-22T09:29:50;13.82;;;6.53;;
63016;SDS011;50274;45.640;11.756;2024-03-22T09:32:17;11.90;;;6.47;;
63016;SDS011;50274;45.640;11.756;2024-03-22T09:34:43;17.73;;;6.00;;
63016;SDS011;50274;45.640;11.756;2024-03-22T09:37:09;9.60;;;4.95;;
63016;SDS011;50274;45.640;11.756;2024-03-22T09:39:35;10.90;;;6.03;;
63016;SDS011;50274;45.640;11.756;2024-03-22T09:42:01;10.88;;;6.47;;
63016;SDS011;50274;45.640;11.756;2024-03-22T09:44:31;12.15;;;6.20;;
63016;SDS011;50274;45.640;11.756;2024-03-22T09:46:58;34.53;;;7.45;;
63016;SDS011;50274;45.640;11.756;2024-03-22T09:49:25;13.73;;;5.17;;
63016;SDS011;50274;45.640;11.756;2024-03-22T09:51:51;10.50;;;4.82;;
63016;SDS011;50274;45.640;11.756;2024-03-22T09:54:17;9.85;;;5.40;;
63016;SDS011;50274;45.640;11.756;2024-03-22T09:56:42;9.75;;;5.10;;
63016;SDS011;50274;45.640;11.756;2024-03-22T09:59:12;14.13;;;6.30;;
63016;SDS011;50274;45.640;11.756;2024-03-22T10:01:38;12.90;;;6.47;;
63016;SDS011;50274;45.640;11.756;2024-03-22T10:04:06;30.90;;;8.95;;
63016;SDS011;50274;45.640;11.756;2024-03-22T10:06:34;13.98;;;6.93;;
63016;SDS011;50274;45.640;11.756;2024-03-22T10:09:00;11.43;;;6.40;;
63016;SDS011;50274;45.640;11.756;2024-03-22T10:11:27;11.63;;;5.47;;
63016;SDS011;50274;45.640;11.756;2024-03-22T10:13:53;8.30;;;4.80;;
63016;SDS011;50274;45.640;11.756;2024-03-22T10:16:20;8.13;;;3.90;;
63016;SDS011;50274;45.640;11.756;2024-03-22T10:18:47;7.05;;;3.95;;
63016;SDS011;50274;45.640;11.756;2024-03-22T10:21:16;8.77;;;3.55;;
63016;SDS011;50274;45.640;11.756;2024-03-22T10:23:46;8.73;;;3.80;;
63016;SDS011;50274;45.640;11.756;2024-03-22T10:26:13;57.60;;;7.05;;
63016;SDS011;50274;45.640;11.756;2024-03-22T10:28:45;19.53;;;4.40;;
63016;SDS011;50274;45.640;11.756;2024-03-22T10:31:12;8.02;;;3.30;;
63016;SDS011;50274;45.640;11.756;2024-03-22T10:33:40;8.90;;;4.43;;
63016;SDS011;50274;45.640;11.756;2024-03-22T10:36:07;10.23;;;5.07;;
63016;SDS011;50274;45.640;11.756;2024-03-22T10:38:36;11.37;;;5.57;;
63016;SDS011;50274;45.640;11.756;2024-03-22T10:41:04;13.48;;;5.25;;
63016;SDS011;50274;45.640;11.756;2024-03-22T10:43:30;14.05;;;5.35;;
63016;SDS011;50274;45.640;11.756;2024-03-22T10:45:59;9.75;;;5.55;;
63016;SDS011;50274;45.640;11.756;2024-03-22T10:48:29;10.20;;;5.60;;
63016;SDS011;50274;45.640;11.756;2024-03-22T10:50:58;8.17;;;4.87;;
63016;SDS011;50274;45.640;11.756;2024-03-22T10:53:26;8.18;;;4.05;;
63016;SDS011;50274;45.640;11.756;2024-03-22T10:55:53;8.23;;;4.03;;
63016;SDS011;50274;45.640;11.756;2024-03-22T10:58:21;6.93;;;3.60;;
63016;SDS011;50274;45.640;11.756;2024-03-22T11:00:50;8.23;;;4.18;;
63016;SDS011;50274;45.640;11.756;2024-03-22T11:03:21;8.00;;;4.00;;
63016;SDS011;50274;45.640;11.756;2024-03-22T11:05:53;7.45;;;3.80;;
63016;SDS011;50274;45.640;11.756;2024-03-22T11:08:24;7.72;;;3.58;;
63016;SDS011;50274;45.640;11.756;2024-03-22T11:10:58;6.93;;;3.97;;
63016;SDS011;50274;45.640;11.756;2024-03-22T11:13:35;7.60;;;3.70;;
63016;SDS011;50274;45.640;11.756;2024-03-22T11:16:02;7.33;;;3.60;;
63016;SDS011;50274;45.640;11.756;2024-03-22T11:18:28;7.40;;;3.35;;
63016;SDS011;50274;45.640;11.756;2024-03-22T11:20:54;7.35;;;3.90;;
63016;SDS011;50274;45.640;11.756;2024-03-22T11:23:19;7.70;;;3.57;;
63016;SDS011;50274;45.640;11.756;2024-03-22T11:25:45;7.10;;;3.90;;
63016;SDS011;50274;45.640;11.756;2024-03-22T11:28:11;7.93;;;3.95;;
63016;SDS011;50274;45.640;11.756;2024-03-22T11:30:37;7.30;;;3.97;;
63016;SDS011;50274;45.640;11.756;2024-03-22T11:33:04;7.80;;;4.15;;
63016;SDS011;50274;45.640;11.756;2024-03-22T11:35:33;7.47;;;4.03;;
63016;SDS011;50274;45.640;11.756;2024-03-22T11:37:59;10.35;;;4.90;;
63016;SDS011;50274;45.640;11.756;2024-03-22T11:40:26;8.00;;;4.43;;
63016;SDS011;50274;45.640;11.756;2024-03-22T11:42:52;8.30;;;4.43;;
63016;SDS011;50274;45.640;11.756;2024-03-22T11:45:20;8.18;;;4.60;;
63016;SDS011;50274;45.640;11.756;2024-03-22T11:47:48;9.27;;;5.57;;
63016;SDS011;50274;45.640;11.756;2024-03-22T11:50:14;12.63;;;6.73;;
63016;SDS011;50274;45.640;11.756;2024-03-22T11:52:41;14.55;;;6.93;;
63016;SDS011;50274;45.640;11.756;2024-03-22T11:55:08;13.65;;;7.90;;
63016;SDS011;50274;45.640;11.756;2024-03-22T11:57:35;11.85;;;6.25;;
63016;SDS011;50274;45.640;11.756;2024-03-22T12:00:01;11.67;;;7.03;;
63016;SDS011;50274;45.640;11.756;2024-03-22T12:02:31;14.38;;;6.03;;
63016;SDS011;50274;45.640;11.756;2024-03-22T12:04:57;60.20;;;9.55;;
63016;SDS011;50274;45.640;11.756;2024-03-22T12:07:23;13.23;;;6.75;;
63016;SDS011;50274;45.640;11.756;2024-03-22T12:09:49;11.93;;;5.85;;
63016;SDS011;50274;45.640;11.756;2024-03-22T12:12:15;10.87;;;6.00;;
63016;SDS011;50274;45.640;11.756;2024-03-22T12:14:41;12.25;;;7.25;;
63016;SDS011;50274;45.640;11.756;2024-03-22T12:17:07;12.57;;;6.83;;
63016;SDS011;50274;45.640;11.756;2024-03-22T12:19:33;10.30;;;6.35;;
63016;SDS011;50274;45.640;11.756;2024-03-22T12:21:59;11.00;;;6.50;;
63016;SDS011;50274;45.640;11.756;2024-03-22T12:24:25;31.52;;;8.27;;
63016;SDS011;50274;45.640;11.756;2024-03-22T12:26:52;22.53;;;8.03;;
63016;SDS011;50274;45.640;11.756;2024-03-22T12:29:18;14.27;;;8.50;;
63016;SDS011;50274;45.640;11.756;2024-03-22T12:31:45;14.15;;;8.38;;
63016;SDS011;50274;45.640;11.756;2024-03-22T12:34:11;15.00;;;8.13;;
63016;SDS011;50274;45.640;11.756;2024-03-22T12:36:37;21.80;;;8.87;;
63016;SDS011;50274;45.640;11.756;2024-03-22T12:39:03;16.50;;;6.95;;
63016;SDS011;50274;45.640;11.756;2024-03-22T12:41:29;13.27;;;7.77;;
63016;SDS011;50274;45.640;11.756;2024-03-22T12:43:56;15.30;;;8.18;;
63016;SDS011;50274;45.640;11.756;2024-03-22T12:46:22;12.13;;;7.00;;
63016;SDS011;50274;45.640;11.756;2024-03-22T12:48:47;11.57;;;6.80;;
63016;SDS011;50274;45.640;11.756;2024-03-22T12:51:13;15.25;;;7.80;;
63016;SDS011;50274;45.640;11.756;2024-03-22T12:53:40;12.00;;;7.70;;
63016;SDS011;50274;45.640;11.756;2024-03-22T12:56:06;12.68;;;7.47;;
63016;SDS011;50274;45.640;11.756;2024-03-22T12:58:32;14.67;;;8.03;;
63016;SDS011;50274;45.640;11.756;2024-03-22T13:00:58;13.70;;;8.23;;
63016;SDS011;50274;45.640;11.756;2024-03-22T13:03:27;12.52;;;8.00;;
63016;SDS011;50274;45.640;11.756;2024-03-22T13:05:53;15.38;;;7.85;;
63016;SDS011;50274;45.640;11.756;2024-03-22T13:08:19;12.00;;;7.13;;
63016;SDS011;50274;45.640;11.756;2024-03-22T13:10:46;12.90;;;6.45;;
63016;SDS011;50274;45.640;11.756;2024-03-22T13:13:13;13.05;;;6.80;;
63016;SDS011;50274;45.640;11.756;2024-03-22T13:15:41;9.75;;;6.25;;
63016;SDS011;50274;45.640;11.756;2024-03-22T13:18:08;12.43;;;6.83;;
63016;SDS011;50274;45.640;11.756;2024-03-22T13:20:37;29.52;;;8.65;;
63016;SDS011;50274;45.640;11.756;2024-03-22T13:23:03;16.50;;;7.85;;
63016;SDS011;50274;45.640;11.756;2024-03-22T13:25:29;19.75;;;8.02;;
63016;SDS011;50274;45.640;11.756;2024-03-22T13:27:55;14.33;;;9.03;;
63016;SDS011;50274;45.640;11.756;2024-03-22T13:30:21;15.02;;;8.45;;
63016;SDS011;50274;45.640;11.756;2024-03-22T13:32:47;15.88;;;9.88;;
63016;SDS011;50274;45.640;11.756;2024-03-22T13:35:13;19.53;;;9.30;;
63016;SDS011;50274;45.640;11.756;2024-03-22T13:37:39;18.60;;;10.50;;
63016;SDS011;50274;45.640;11.756;2024-03-22T13:40:08;13.20;;;8.57;;
63016;SDS011;50274;45.640;11.756;2024-03-22T13:42:34;13.10;;;7.43;;
63016;SDS011;50274;45.640;11.756;2024-03-22T13:45:00;52.08;;;11.60;;
63016;SDS011;50274;45.640;11.756;2024-03-22T13:47:26;16.80;;;8.43;;
63016;SDS011;50274;45.640;11.756;2024-03-22T13:49:55;14.98;;;7.47;;
63016;SDS011;50274;45.640;11.756;2024-03-22T13:52:21;16.15;;;8.18;;
63016;SDS011;50274;45.640;11.756;2024-03-22T13:54:47;12.10;;;7.35;;
63016;SDS011;50274;45.640;11.756;2024-03-22T13:57:15;27.50;;;8.67;;
63016;SDS011;50274;45.640;11.756;2024-03-22T13:59:41;15.27;;;7.03;;
63016;SDS011;50274;45.640;11.756;2024-03-22T14:02:06;10.93;;;6.55;;
63016;SDS011;50274;45.640;11.756;2024-03-22T14:04:35;19.40;;;7.80;;
63016;SDS011;50274;45.640;11.756;2024-03-22T14:07:01;14.80;;;6.35;;
63016;SDS011;50274;45.640;11.756;2024-03-22T14:09:33;14.77;;;7.22;;
63016;SDS011;50274;45.640;11.756;2024-03-22T14:11:59;10.38;;;6.22;;